createdAt,value
2022-09-21T00:03:47.955Z,12.35
2022-09-21T00:07:50.034Z,12.27
2022-09-21T00:11:56.347Z,12.11
2022-09-21T00:16:01.090Z,12.00
2022-09-21T00:20:05.990Z,11.77
2022-09-21T00:24:08.267Z,11.73
2022-09-21T00:28:10.823Z,11.58
2022-09-21T00:32:13.027Z,11.51
2022-09-21T00:36:18.202Z,11.43
2022-09-21T00:40:20.175Z,11.40
2022-09-21T00:44:22.155Z,11.32
2022-09-21T00:48:24.371Z,11.35
2022-09-21T00:52:32.586Z,11.45
2022-09-21T00:56:37.357Z,11.30
2022-09-21T01:00:44.366Z,11.15
2022-09-21T01:04:48.291Z,10.89
2022-09-21T01:08:58.022Z,10.85
2022-09-21T01:13:30.370Z,10.86
2022-09-21T01:17:40.982Z,10.81
2022-09-21T01:22:20.426Z,10.73
2022-09-21T01:26:54.350Z,10.87
2022-09-21T01:31:00.189Z,10.71
2022-09-21T01:35:10.919Z,10.59
2022-09-21T01:39:15.335Z,10.39
2022-09-21T01:43:25.444Z,10.36
2022-09-21T01:47:31.575Z,10.65
2022-09-21T01:51:35.075Z,10.85
2022-09-21T01:55:46.399Z,10.93
2022-09-21T01:59:56.339Z,10.86
2022-09-21T02:04:04.729Z,10.88
2022-09-21T02:08:08.741Z,10.70
2022-09-21T02:12:18.951Z,10.68
2022-09-21T02:16:48.510Z,10.65
2022-09-21T02:20:57.598Z,10.79
2022-09-21T02:25:29.193Z,10.71
2022-09-21T02:30:09.629Z,10.51
2022-09-21T02:34:30.610Z,10.45
2022-09-21T02:38:49.455Z,10.40
2022-09-21T02:43:12.565Z,10.44
2022-09-21T02:47:31.615Z,10.30
2022-09-21T02:51:39.736Z,10.22
2022-09-21T02:55:44.865Z,10.23
2022-09-21T02:59:47.060Z,10.26
2022-09-21T03:03:49.461Z,10.29
2022-09-21T03:07:51.502Z,10.27
2022-09-21T03:11:54.174Z,10.21
2022-09-21T03:16:05.337Z,10.15
2022-09-21T03:20:08.102Z,10.05
2022-09-21T03:24:10.094Z,10.05
2022-09-21T03:28:13.571Z,9.95
2022-09-21T03:32:15.950Z,9.84
2022-09-21T03:36:22.122Z,9.74
2022-09-21T03:40:27.634Z,9.65
2022-09-21T03:44:29.677Z,9.59
2022-09-21T03:48:32.899Z,9.68
2022-09-21T03:52:36.402Z,9.66
2022-09-21T03:56:38.701Z,9.64
2022-09-21T04:00:40.693Z,9.63
2022-09-21T04:04:44.323Z,9.53
2022-09-21T04:08:46.647Z,9.53
2022-09-21T04:12:49.134Z,9.53
2022-09-21T04:16:52.147Z,9.57
2022-09-21T04:20:54.747Z,9.62
2022-09-21T04:24:56.705Z,9.70
2022-09-21T04:28:59.706Z,9.71
2022-09-21T04:33:01.641Z,9.84
2022-09-21T04:37:03.661Z,9.90
2022-09-21T04:41:05.692Z,9.85
2022-09-21T04:45:08.474Z,9.92
2022-09-21T04:49:10.866Z,10.15
2022-09-21T04:53:13.454Z,10.22
2022-09-21T04:57:15.815Z,10.14
2022-09-21T05:01:17.911Z,10.08
2022-09-21T05:05:20.407Z,10.06
2022-09-21T05:09:41.131Z,10.21
2022-09-21T05:13:43.173Z,10.15
2022-09-21T05:17:45.338Z,10.03
2022-09-21T05:21:47.825Z,9.89
2022-09-21T05:25:51.161Z,9.74
2022-09-21T05:29:53.562Z,9.59
2022-09-21T05:34:16.512Z,9.71
2022-09-21T05:38:19.958Z,9.81
2022-09-21T05:42:22.370Z,9.91
2022-09-21T05:46:43.218Z,10.16
2022-09-21T05:51:05.240Z,10.33
2022-09-21T05:55:18.905Z,10.58
2022-09-21T05:59:41.824Z,10.81
2022-09-21T06:03:44.146Z,10.96
2022-09-21T06:07:46.372Z,11.17
2022-09-21T06:11:48.731Z,11.44
2022-09-21T06:15:50.883Z,11.81
2022-09-21T06:19:54.171Z,12.41
2022-09-21T06:23:56.618Z,13.47
2022-09-21T06:28:04.573Z,14.03
2022-09-21T06:32:06.662Z,14.44
2022-09-21T06:36:08.780Z,14.69
2022-09-21T06:40:10.976Z,14.81
2022-09-21T06:44:13.121Z,14.97
2022-09-21T06:48:15.970Z,15.01
2022-09-21T06:52:17.961Z,15.05
2022-09-21T06:56:20.231Z,15.11
2022-09-21T07:00:22.419Z,15.10
2022-09-21T07:04:25.360Z,15.12
2022-09-21T07:12:51.748Z,15.25
2022-09-21T07:16:53.934Z,15.34
2022-09-21T07:20:56.090Z,15.37
2022-09-21T07:25:00.217Z,15.42
2022-09-21T07:29:02.364Z,15.57
2022-09-21T07:33:05.422Z,15.61
2022-09-21T07:37:07.491Z,15.68
2022-09-21T07:41:15.492Z,15.74
2022-09-21T07:45:17.815Z,15.89
2022-09-21T07:49:20.203Z,15.99
2022-09-21T07:53:22.423Z,16.11
2022-09-21T07:57:43.524Z,16.33
2022-09-21T08:01:45.560Z,16.48
2022-09-21T08:05:47.751Z,16.55
2022-09-21T08:09:51.137Z,16.63
2022-09-21T08:13:55.259Z,16.71
2022-09-21T08:17:58.808Z,16.99
2022-09-21T08:22:01.406Z,16.84
2022-09-21T08:26:08.260Z,16.84
2022-09-21T08:30:13.835Z,16.92
2022-09-21T08:34:16.520Z,17.02
2022-09-21T08:38:18.563Z,16.99
2022-09-21T08:42:33.021Z,17.05
2022-09-21T08:46:37.376Z,17.04
2022-09-21T08:50:51.139Z,17.08
2022-09-21T08:55:25.729Z,17.17
2022-09-21T08:59:28.447Z,17.24
2022-09-21T09:04:03.910Z,17.37
2022-09-21T09:08:20.074Z,17.50
2022-09-21T09:12:57.988Z,17.61
2022-09-21T09:17:19.449Z,17.73
2022-09-21T09:21:32.190Z,17.90
2022-09-21T09:25:40.006Z,17.96
2022-09-21T09:30:03.750Z,18.04
2022-09-21T09:34:16.912Z,18.18
2022-09-21T09:38:37.569Z,18.09
2022-09-21T09:42:52.615Z,18.16
2022-09-21T09:47:22.442Z,18.31
2022-09-21T09:51:26.907Z,18.46
2022-09-21T09:55:51.056Z,18.43
2022-09-21T10:00:02.306Z,18.63
2022-09-21T10:04:17.618Z,18.66
2022-09-21T10:08:39.313Z,18.60
2022-09-21T10:12:46.643Z,18.71
2022-09-21T10:16:53.426Z,18.85
2022-09-21T10:21:20.284Z,18.89
2022-09-21T10:25:22.813Z,18.95
2022-09-21T10:29:25.429Z,18.93
2022-09-21T10:33:27.487Z,19.00
2022-09-21T10:37:37.588Z,19.10
2022-09-21T10:41:39.827Z,19.23
2022-09-21T10:45:53.999Z,19.12
2022-09-21T10:50:00.333Z,19.30
2022-09-21T10:54:09.261Z,19.31
2022-09-21T10:58:13.648Z,19.39
2022-09-21T11:02:31.302Z,19.20
2022-09-21T11:06:47.625Z,19.15
2022-09-21T11:11:25.448Z,19.11
2022-09-21T11:16:01.471Z,19.14
2022-09-21T11:20:14.693Z,19.18
2022-09-21T11:24:45.771Z,19.38
2022-09-21T11:29:15.477Z,19.63
2022-09-21T11:33:42.849Z,19.67
2022-09-21T11:37:54.946Z,19.71
2022-09-21T11:42:14.603Z,19.65
2022-09-21T11:46:38.644Z,19.77
2022-09-21T11:51:15.123Z,20.03
2022-09-21T11:55:36.463Z,19.91
2022-09-21T12:00:17.002Z,19.86
2022-09-21T12:04:44.664Z,19.76
2022-09-21T12:13:50.620Z,19.73
2022-09-21T12:18:04.681Z,19.73
2022-09-21T12:22:14.081Z,19.64
2022-09-21T12:26:32.073Z,19.75
2022-09-21T12:30:39.292Z,19.82
2022-09-21T12:34:46.418Z,19.89
2022-09-21T12:38:53.053Z,20.03
2022-09-21T12:43:18.382Z,19.96
2022-09-21T12:47:31.064Z,20.05
2022-09-21T12:51:41.841Z,20.21
2022-09-21T12:56:07.694Z,20.33
2022-09-21T13:00:22.361Z,20.39
2022-09-21T13:05:02.224Z,20.28
2022-09-21T13:09:09.966Z,20.09
2022-09-21T13:13:39.936Z,20.02
2022-09-21T13:17:42.161Z,20.13
2022-09-21T13:21:44.399Z,20.21
2022-09-21T13:25:59.192Z,20.18
2022-09-21T13:30:32.677Z,20.21
2022-09-21T13:34:35.730Z,20.27
2022-09-21T13:38:41.311Z,20.21
2022-09-21T13:42:46.703Z,20.26
2022-09-21T13:46:52.258Z,20.30
2022-09-21T13:50:58.053Z,20.34
2022-09-21T13:55:04.378Z,20.21
2022-09-21T13:59:18.007Z,20.18
2022-09-21T14:03:24.901Z,20.13
2022-09-21T14:07:32.777Z,20.10
2022-09-21T14:11:39.404Z,20.23
2022-09-21T14:15:42.445Z,20.01
2022-09-21T14:19:44.567Z,20.08
2022-09-21T14:24:23.008Z,19.91
2022-09-21T14:28:35.335Z,19.95
2022-09-21T14:32:51.065Z,20.03
2022-09-21T14:36:58.376Z,19.82
2022-09-21T14:41:08.045Z,19.82
2022-09-21T14:45:18.206Z,19.69
2022-09-21T14:49:32.427Z,19.71
2022-09-21T14:53:58.264Z,19.55
2022-09-21T14:58:10.098Z,19.59
2022-09-21T15:02:21.141Z,19.48
2022-09-21T15:07:11.159Z,19.42
2022-09-21T15:11:27.702Z,19.44
2022-09-21T15:15:37.170Z,19.35
2022-09-21T15:19:39.381Z,19.32
2022-09-21T15:23:41.461Z,19.14
2022-09-21T15:27:46.884Z,19.07
2022-09-21T15:31:50.817Z,19.01
2022-09-21T15:35:54.706Z,19.05
2022-09-21T15:40:06.336Z,19.04
2022-09-21T15:44:16.753Z,19.11
2022-09-21T15:48:21.071Z,19.19
2022-09-21T15:52:37.914Z,19.14
2022-09-21T15:56:43.766Z,20.47
2022-09-21T16:00:55.068Z,20.99
2022-09-21T16:04:57.232Z,20.74
2022-09-21T16:08:59.356Z,20.36
2022-09-21T16:13:37.610Z,20.56
2022-09-21T16:17:58.680Z,20.47
2022-09-21T16:22:04.885Z,20.26
2022-09-21T16:26:07.010Z,20.18
2022-09-21T16:30:38.240Z,19.95
2022-09-21T16:34:40.393Z,20.04
2022-09-21T16:38:43.138Z,19.61
2022-09-21T16:42:46.236Z,19.47
2022-09-21T16:46:51.628Z,18.80
2022-09-21T16:50:54.279Z,18.11
2022-09-21T16:54:58.814Z,17.59
2022-09-21T16:59:04.255Z,17.19
2022-09-21T17:03:06.506Z,16.91
2022-09-21T17:07:12.596Z,16.61
2022-09-21T17:11:21.997Z,16.16
2022-09-21T17:15:25.318Z,15.92
2022-09-21T17:19:27.471Z,15.77
2022-09-21T17:23:29.996Z,15.53
2022-09-21T17:27:32.125Z,15.45
2022-09-21T17:31:35.157Z,15.26
2022-09-21T17:35:39.538Z,15.14
2022-09-21T17:39:42.644Z,14.94
2022-09-21T17:43:56.572Z,14.82
2022-09-21T17:47:58.822Z,14.70
2022-09-21T17:52:19.808Z,14.57
2022-09-21T17:56:40.241Z,14.48
2022-09-21T18:00:57.126Z,14.36
2022-09-21T18:05:04.570Z,14.28
2022-09-21T18:09:07.175Z,14.24
2022-09-21T18:13:33.722Z,14.13
2022-09-21T18:18:13.185Z,14.13
2022-09-21T18:22:28.868Z,14.11
2022-09-21T18:26:33.220Z,13.97
2022-09-21T18:30:39.374Z,13.92
2022-09-21T18:34:55.903Z,13.87
2022-09-21T18:39:23.254Z,13.85
2022-09-21T18:43:28.829Z,13.85
2022-09-21T18:47:40.490Z,13.80
2022-09-21T18:52:03.916Z,13.68
2022-09-21T18:56:08.376Z,13.61
2022-09-21T19:00:12.228Z,13.57
2022-09-21T19:04:17.574Z,13.51
2022-09-21T19:08:35.011Z,13.42
2022-09-21T19:13:18.781Z,13.32
2022-09-21T19:18:02.015Z,13.20
2022-09-21T19:22:16.618Z,13.07
2022-09-21T19:26:57.431Z,12.95
2022-09-21T19:31:08.106Z,12.84
2022-09-21T19:35:16.975Z,12.72
2022-09-21T19:39:19.838Z,12.59
2022-09-21T19:43:31.465Z,12.40
2022-09-21T19:47:50.940Z,12.40
2022-09-21T19:51:56.133Z,12.35
2022-09-21T19:56:20.745Z,12.11
2022-09-21T20:00:24.220Z,12.10
2022-09-21T20:04:42.636Z,11.84
2022-09-21T20:08:56.935Z,11.70
2022-09-21T20:13:12.572Z,11.78
2022-09-21T20:17:22.209Z,11.63
2022-09-21T20:21:37.396Z,11.46
2022-09-21T20:26:00.122Z,11.45
2022-09-21T20:30:04.725Z,11.35
2022-09-21T20:34:06.714Z,11.30
2022-09-21T20:38:09.555Z,11.29
2022-09-21T20:42:25.456Z,11.30
2022-09-21T20:46:27.571Z,11.50
2022-09-21T20:50:30.420Z,11.64
2022-09-21T20:54:34.022Z,11.89
2022-09-21T20:58:36.041Z,11.93
2022-09-21T21:02:38.010Z,11.96
2022-09-21T21:06:40.203Z,12.16
2022-09-21T21:10:54.557Z,12.01
2022-09-21T21:14:58.499Z,12.06
2022-09-21T21:19:00.923Z,11.86
2022-09-21T21:23:07.771Z,11.66
2022-09-21T21:27:14.782Z,11.46
2022-09-21T21:31:20.824Z,11.51
2022-09-21T21:35:25.995Z,11.27
2022-09-21T21:39:28.362Z,11.23
2022-09-21T21:43:35.789Z,11.03
2022-09-21T21:47:40.546Z,10.87
2022-09-21T21:51:44.711Z,10.91
2022-09-21T21:55:47.649Z,10.99
2022-09-21T21:59:49.821Z,11.23
2022-09-21T22:03:54.186Z,11.55
2022-09-21T22:07:56.505Z,11.74
2022-09-21T22:12:01.388Z,11.83
2022-09-21T22:16:05.467Z,11.87
2022-09-21T22:20:08.471Z,11.56
2022-09-21T22:24:11.067Z,11.44
2022-09-21T22:28:14.015Z,11.33
2022-09-21T22:32:16.423Z,11.05
2022-09-21T22:36:20.878Z,10.95
2022-09-21T22:40:22.955Z,10.76
2022-09-21T22:44:25.150Z,10.64
2022-09-21T22:48:27.599Z,10.48
2022-09-21T22:52:29.839Z,10.40
2022-09-21T22:56:33.489Z,10.05
2022-09-21T23:00:35.616Z,10.08
2022-09-21T23:04:37.640Z,9.92
2022-09-21T23:08:42.813Z,9.87
2022-09-21T23:12:47.559Z,9.78
2022-09-21T23:16:50.456Z,9.77
2022-09-21T23:20:57.609Z,9.67
2022-09-21T23:24:59.603Z,9.56
2022-09-21T23:29:04.670Z,9.36
2022-09-21T23:33:07.517Z,9.29
2022-09-21T23:37:09.690Z,9.32
2022-09-21T23:41:16.417Z,9.30
2022-09-21T23:45:18.495Z,9.10
2022-09-21T23:49:20.555Z,9.25
2022-09-21T23:53:23.444Z,9.18
2022-09-21T23:57:25.573Z,9.08
